sensor_id;sensor_type;location;lat;lon;timestamp;pressure;altitude;pressure_sealevel;temperature;humidity
10115;BME280;5097;43.260;27.812;2022-07-15T00:01:21;100054.34;;;21.13;45.39
10115;BME280;5097;43.260;27.812;2022-07-15T00:03:45;100049.38;;;21.18;45.04
10115;BME280;5097;43.260;27.812;2022-07-15T00:06:09;100020.94;;;20.97;45.08
10115;BME280;5097;43.260;27.812;2022-07-15T00:08:35;100054.63;;;21.09;45.47
10115;BME280;5097;43.260;27.812;2022-07-15T00:10:59;100008.41;;;20.70;45.42
10115;BME280;5097;43.260;27.812;2022-07-15T00:13:23;100051.94;;;20.91;45.62
10115;BME280;5097;43.260;27.812;2022-07-15T00:15:49;100031.19;;;20.84;45.72
10115;BME280;5097;43.260;27.812;2022-07-15T00:18:13;100036.78;;;20.72;46.06
10115;BME280;5097;43.260;27.812;2022-07-15T00:20:37;100044.94;;;20.81;46.16
10115;BME280;5097;43.260;27.812;2022-07-15T00:23:04;100030.78;;;20.79;45.92
10115;BME280;5097;43.260;27.812;2022-07-15T00:25:29;100028.72;;;20.63;46.26
10115;BME280;5097;43.260;27.812;2022-07-15T00:27:55;100050.44;;;20.79;46.15
10115;BME280;5097;43.260;27.812;2022-07-15T00:30:20;99985.44;;;20.48;46.19
10115;BME280;5097;43.260;27.812;2022-07-15T00:32:47;100037.78;;;20.89;46.09
10115;BME280;5097;43.260;27.812;2022-07-15T00:35:11;99990.72;;;20.67;46.11
10115;BME280;5097;43.260;27.812;2022-07-15T00:37:35;100040.72;;;20.96;46.14
10115;BME280;5097;43.260;27.812;2022-07-15T00:39:59;100020.25;;;20.95;45.72
10115;BME280;5097;43.260;27.812;2022-07-15T00:42:24;100035.56;;;20.85;45.99
10115;BME280;5097;43.260;27.812;2022-07-15T00:45:09;100034.28;;;20.89;46.02
10115;BME280;5097;43.260;27.812;2022-07-15T00:47:33;100026.72;;;20.74;46.42
10115;BME280;5097;43.260;27.812;2022-07-15T00:50:00;100030.56;;;20.72;46.46
10115;BME280;5097;43.260;27.812;2022-07-15T00:52:25;100031.97;;;20.66;46.70
10115;BME280;5097;43.260;27.812;2022-07-15T00:54:52;100020.06;;;20.79;46.55
10115;BME280;5097;43.260;27.812;2022-07-15T00:57:17;100024.28;;;20.81;46.82
10115;BME280;5097;43.260;27.812;2022-07-15T00:59:43;100018.13;;;20.71;47.17
10115;BME280;5097;43.260;27.812;2022-07-15T01:02:08;100012.44;;;20.46;47.64
10115;BME280;5097;43.260;27.812;2022-07-15T01:04:33;100014.47;;;20.34;47.73
10115;BME280;5097;43.260;27.812;2022-07-15T01:06:58;99991.44;;;20.41;47.30
10115;BME280;5097;43.260;27.812;2022-07-15T01:09:22;100009.94;;;20.63;47.32
10115;BME280;5097;43.260;27.812;2022-07-15T01:11:47;100010.41;;;20.58;47.70
10115;BME280;5097;43.260;27.812;2022-07-15T01:14:12;100011.22;;;20.31;48.06
10115;BME280;5097;43.260;27.812;2022-07-15T01:16:36;99999.19;;;20.07;48.00
10115;BME280;5097;43.260;27.812;2022-07-15T01:19:01;100006.97;;;20.38;47.91
10115;BME280;5097;43.260;27.812;2022-07-15T01:21:34;100005.19;;;20.56;47.43
10115;BME280;5097;43.260;27.812;2022-07-15T01:23:58;99998.38;;;20.62;47.21
10115;BME280;5097;43.260;27.812;2022-07-15T01:26:35;100003.03;;;20.60;47.33
10115;BME280;5097;43.260;27.812;2022-07-15T01:28:59;100002.69;;;20.45;47.61
10115;BME280;5097;43.260;27.812;2022-07-15T01:31:24;99953.56;;;20.17;47.55
10115;BME280;5097;43.260;27.812;2022-07-15T01:33:49;99990.56;;;20.41;47.52
10115;BME280;5097;43.260;27.812;2022-07-15T01:36:18;100001.06;;;20.62;47.43
10115;BME280;5097;43.260;27.812;2022-07-15T01:38:50;99972.91;;;20.66;46.54
10115;BME280;5097;43.260;27.812;2022-07-15T01:41:34;100000.59;;;20.76;46.94
10115;BME280;5097;43.260;27.812;2022-07-15T01:43:58;100003.94;;;20.79;46.73
10115;BME280;5097;43.260;27.812;2022-07-15T01:46:23;99996.09;;;20.67;47.48
10115;BME280;5097;43.260;27.812;2022-07-15T01:48:47;99990.44;;;20.70;47.00
10115;BME280;5097;43.260;27.812;2022-07-15T01:51:38;99991.31;;;20.61;47.00
10115;BME280;5097;43.260;27.812;2022-07-15T01:54:05;99995.53;;;20.64;47.30
10115;BME280;5097;43.260;27.812;2022-07-15T01:56:29;99985.78;;;20.72;47.07
10115;BME280;5097;43.260;27.812;2022-07-15T01:58:53;99980.81;;;20.68;46.89
10115;BME280;5097;43.260;27.812;2022-07-15T02:01:18;99997.22;;;20.65;47.18
10115;BME280;5097;43.260;27.812;2022-07-15T02:03:42;99963.19;;;20.37;47.08
10115;BME280;5097;43.260;27.812;2022-07-15T02:06:07;99994.22;;;20.50;47.06
10115;BME280;5097;43.260;27.812;2022-07-15T02:08:32;99988.34;;;20.36;47.37
10115;BME280;5097;43.260;27.812;2022-07-15T02:10:59;99977.38;;;20.20;47.74
10115;BME280;5097;43.260;27.812;2022-07-15T02:13:24;99962.94;;;20.31;47.63
10115;BME280;5097;43.260;27.812;2022-07-15T02:16:13;99990.72;;;20.39;47.54
10115;BME280;5097;43.260;27.812;2022-07-15T02:18:38;99981.44;;;20.34;47.26
10115;BME280;5097;43.260;27.812;2022-07-15T02:21:03;99976.34;;;20.31;47.38
10115;BME280;5097;43.260;27.812;2022-07-15T02:23:27;99992.59;;;20.57;46.76
10115;BME280;5097;43.260;27.812;2022-07-15T02:25:51;99952.97;;;20.23;47.22
10115;BME280;5097;43.260;27.812;2022-07-15T02:28:22;99993.97;;;20.43;47.24
10115;BME280;5097;43.260;27.812;2022-07-15T02:30:47;99995.50;;;20.46;47.39
10115;BME280;5097;43.260;27.812;2022-07-15T02:33:11;99998.31;;;20.44;47.23
10115;BME280;5097;43.260;27.812;2022-07-15T02:35:36;99980.69;;;20.04;47.91
10115;BME280;5097;43.260;27.812;2022-07-15T02:38:01;99996.88;;;20.22;47.81
10115;BME280;5097;43.260;27.812;2022-07-15T02:40:27;99953.44;;;20.08;47.57
10115;BME280;5097;43.260;27.812;2022-07-15T02:42:53;99986.44;;;20.47;47.86
10115;BME280;5097;43.260;27.812;2022-07-15T02:45:19;99988.94;;;20.30;47.42
10115;BME280;5097;43.260;27.812;2022-07-15T02:47:44;99987.75;;;20.15;47.83
10115;BME280;5097;43.260;27.812;2022-07-15T02:50:09;99987.38;;;20.27;47.80
10115;BME280;5097;43.260;27.812;2022-07-15T02:52:34;99995.78;;;20.42;47.77
10115;BME280;5097;43.260;27.812;2022-07-15T02:54:58;99945.34;;;20.18;47.71
10115;BME280;5097;43.260;27.812;2022-07-15T02:57:24;99977.78;;;20.25;47.88
10115;BME280;5097;43.260;27.812;2022-07-15T02:59:48;99986.16;;;20.22;48.13
10115;BME280;5097;43.260;27.812;2022-07-15T03:02:13;99992.19;;;20.24;48.33
10115;BME280;5097;43.260;27.812;2022-07-15T03:04:38;99989.59;;;20.42;47.75
10115;BME280;5097;43.260;27.812;2022-07-15T03:07:02;99996.44;;;20.54;47.67
10115;BME280;5097;43.260;27.812;2022-07-15T03:09:27;99989.88;;;20.39;48.31
10115;BME280;5097;43.260;27.812;2022-07-15T03:11:51;99994.22;;;20.50;48.10
10115;BME280;5097;43.260;27.812;2022-07-15T03:14:17;99986.59;;;20.45;47.97
10115;BME280;5097;43.260;27.812;2022-07-15T03:16:43;99989.03;;;20.66;47.68
10115;BME280;5097;43.260;27.812;2022-07-15T03:19:09;99991.56;;;20.68;47.37
10115;BME280;5097;43.260;27.812;2022-07-15T03:21:36;99993.22;;;20.79;47.18
10115;BME280;5097;43.260;27.812;2022-07-15T03:37:00;99994.00;;;21.25;46.76
10115;BME280;5097;43.260;27.812;2022-07-15T03:39:25;99993.53;;;21.48;46.62
10115;BME280;5097;43.260;27.812;2022-07-15T03:41:49;99993.63;;;21.38;46.86
10115;BME280;5097;43.260;27.812;2022-07-15T03:44:13;99972.66;;;21.05;47.95
10115;BME280;5097;43.260;27.812;2022-07-15T03:46:38;99994.56;;;21.29;48.04
10115;BME280;5097;43.260;27.812;2022-07-15T03:49:03;99958.81;;;21.10;48.54
10115;BME280;5097;43.260;27.812;2022-07-15T03:51:29;99992.97;;;21.18;48.85
10115;BME280;5097;43.260;27.812;2022-07-15T03:53:55;99954.31;;;21.19;48.72
10115;BME280;5097;43.260;27.812;2022-07-15T03:56:19;99958.97;;;21.53;47.82
10115;BME280;5097;43.260;27.812;2022-07-15T03:58:44;99954.69;;;21.60;47.44
10115;BME280;5097;43.260;27.812;2022-07-15T04:01:08;99982.69;;;21.75;47.78
10115;BME280;5097;43.260;27.812;2022-07-15T04:03:33;99956.34;;;21.87;47.41
10115;BME280;5097;43.260;27.812;2022-07-15T04:05:57;99943.66;;;21.98;47.09
10115;BME280;5097;43.260;27.812;2022-07-15T04:08:22;99957.22;;;22.22;47.02
10115;BME280;5097;43.260;27.812;2022-07-15T04:10:48;99990.47;;;22.48;47.27
10115;BME280;5097;43.260;27.812;2022-07-15T04:13:12;99971.72;;;22.30;47.63
10115;BME280;5097;43.260;27.812;2022-07-15T04:15:41;99981.84;;;22.79;46.70
10115;BME280;5097;43.260;27.812;2022-07-15T04:18:07;99983.19;;;22.83;46.42
10115;BME280;5097;43.260;27.812;2022-07-15T04:20:32;99976.81;;;22.92;46.25
10115;BME280;5097;43.260;27.812;2022-07-15T04:22:56;100000.78;;;23.28;45.95
10115;BME280;5097;43.260;27.812;2022-07-15T04:25:22;99974.53;;;23.30;45.77
10115;BME280;5097;43.260;27.812;2022-07-15T04:27:49;99964.06;;;23.43;45.30
10115;BME280;5097;43.260;27.812;2022-07-15T04:30:18;99975.34;;;23.64;44.68
10115;BME280;5097;43.260;27.812;2022-07-15T04:32:44;99965.88;;;23.76;45.09
10115;BME280;5097;43.260;27.812;2022-07-15T04:35:09;100005.31;;;23.85;46.41
10115;BME280;5097;43.260;27.812;2022-07-15T04:37:37;99985.56;;;24.09;45.97
10115;BME280;5097;43.260;27.812;2022-07-15T04:40:01;100007.41;;;24.39;45.52
10115;BME280;5097;43.260;27.812;2022-07-15T04:42:26;99982.97;;;24.33;44.93
10115;BME280;5097;43.260;27.812;2022-07-15T04:44:53;99970.63;;;24.38;43.81
10115;BME280;5097;43.260;27.812;2022-07-15T04:47:17;100003.00;;;24.78;43.59
10115;BME280;5097;43.260;27.812;2022-07-15T04:49:54;99976.91;;;24.70;43.61
10115;BME280;5097;43.260;27.812;2022-07-15T04:52:36;99974.56;;;24.59;44.28
10115;BME280;5097;43.260;27.812;2022-07-15T04:55:00;99973.47;;;24.76;44.17
10115;BME280;5097;43.260;27.812;2022-07-15T04:57:25;99977.75;;;24.94;43.73
10115;BME280;5097;43.260;27.812;2022-07-15T04:59:53;99967.63;;;24.73;44.31
10115;BME280;5097;43.260;27.812;2022-07-15T05:02:17;99968.69;;;24.87;43.92
10115;BME280;5097;43.260;27.812;2022-07-15T05:04:44;99981.50;;;25.16;43.59
10115;BME280;5097;43.260;27.812;2022-07-15T05:07:11;99983.41;;;25.07;44.19
10115;BME280;5097;43.260;27.812;2022-07-15T05:09:37;100007.94;;;25.29;43.87
10115;BME280;5097;43.260;27.812;2022-07-15T05:12:01;99999.97;;;25.36;43.98
10115;BME280;5097;43.260;27.812;2022-07-15T05:14:34;99976.81;;;25.10;43.92
10115;BME280;5097;43.260;27.812;2022-07-15T05:16:59;100007.22;;;25.35;44.23
10115;BME280;5097;43.260;27.812;2022-07-15T05:19:24;99947.50;;;25.22;43.72
10115;BME280;5097;43.260;27.812;2022-07-15T05:21:49;99933.09;;;25.06;43.76
10115;BME280;5097;43.260;27.812;2022-07-15T05:24:14;99974.00;;;25.26;43.53
10115;BME280;5097;43.260;27.812;2022-07-15T05:26:50;99974.19;;;25.48;43.50
10115;BME280;5097;43.260;27.812;2022-07-15T05:29:16;100009.00;;;25.66;43.23
10115;BME280;5097;43.260;27.812;2022-07-15T05:32:09;99996.50;;;25.65;43.17
10115;BME280;5097;43.260;27.812;2022-07-15T05:34:34;99956.47;;;25.46;42.87
10115;BME280;5097;43.260;27.812;2022-07-15T05:37:02;100006.97;;;25.68;42.57
10115;BME280;5097;43.260;27.812;2022-07-15T05:39:28;100000.81;;;25.74;42.93
10115;BME280;5097;43.260;27.812;2022-07-15T05:41:52;99978.31;;;25.59;42.31
10115;BME280;5097;43.260;27.812;2022-07-15T05:44:17;100002.50;;;25.75;41.93
10115;BME280;5097;43.260;27.812;2022-07-15T05:46:44;99999.69;;;25.84;42.03
10115;BME280;5097;43.260;27.812;2022-07-15T05:49:10;99939.56;;;25.43;41.55
10115;BME280;5097;43.260;27.812;2022-07-15T05:51:35;99993.41;;;26.06;41.18
10115;BME280;5097;43.260;27.812;2022-07-15T05:54:00;99969.72;;;26.08;40.61
10115;BME280;5097;43.260;27.812;2022-07-15T05:56:25;99986.78;;;26.39;40.43
10115;BME280;5097;43.260;27.812;2022-07-15T05:58:52;99952.06;;;26.13;39.97
10115;BME280;5097;43.260;27.812;2022-07-15T06:01:22;99968.19;;;26.36;39.29
10115;BME280;5097;43.260;27.812;2022-07-15T06:03:47;99997.47;;;26.62;39.92
10115;BME280;5097;43.260;27.812;2022-07-15T06:06:14;99990.88;;;26.50;38.93
10115;BME280;5097;43.260;27.812;2022-07-15T06:08:42;99958.84;;;26.38;38.10
10115;BME280;5097;43.260;27.812;2022-07-15T06:11:07;99927.97;;;26.18;39.02
10115;BME280;5097;43.260;27.812;2022-07-15T06:13:35;99996.00;;;26.74;39.05
10115;BME280;5097;43.260;27.812;2022-07-15T06:16:01;99964.28;;;26.75;38.67
10115;BME280;5097;43.260;27.812;2022-07-15T06:18:26;99989.25;;;26.70;39.50
10115;BME280;5097;43.260;27.812;2022-07-15T06:20:50;99963.63;;;26.88;38.65
10115;BME280;5097;43.260;27.812;2022-07-15T06:23:16;99984.53;;;26.94;38.15
10115;BME280;5097;43.260;27.812;2022-07-15T06:25:40;99988.22;;;27.30;37.97
10115;BME280;5097;43.260;27.812;2022-07-15T06:28:05;99992.50;;;27.39;37.43
10115;BME280;5097;43.260;27.812;2022-07-15T06:30:29;99956.97;;;27.12;37.33
10115;BME280;5097;43.260;27.812;2022-07-15T06:32:54;99961.75;;;27.32;36.32
10115;BME280;5097;43.260;27.812;2022-07-15T06:35:19;99989.16;;;27.37;37.00
10115;BME280;5097;43.260;27.812;2022-07-15T06:37:43;99964.75;;;27.22;35.47
10115;BME280;5097;43.260;27.812;2022-07-15T06:40:10;99983.91;;;27.57;35.48
10115;BME280;5097;43.260;27.812;2022-07-15T06:42:35;99956.78;;;27.57;35.61
10115;BME280;5097;43.260;27.812;2022-07-15T06:45:04;99938.03;;;27.40;35.27
10115;BME280;5097;43.260;27.812;2022-07-15T06:47:28;99945.34;;;27.40;34.58
10115;BME280;5097;43.260;27.812;2022-07-15T06:49:54;99952.06;;;27.72;33.62
10115;BME280;5097;43.260;27.812;2022-07-15T06:52:21;99955.97;;;27.98;33.75
10115;BME280;5097;43.260;27.812;2022-07-15T06:54:46;99974.06;;;27.84;33.25
10115;BME280;5097;43.260;27.812;2022-07-15T06:57:11;99945.47;;;27.88;33.07
10115;BME280;5097;43.260;27.812;2022-07-15T06:59:42;99945.06;;;28.20;32.34
10115;BME280;5097;43.260;27.812;2022-07-15T07:02:07;99973.84;;;28.14;33.65
10115;BME280;5097;43.260;27.812;2022-07-15T07:04:31;99941.63;;;28.04;31.84
10115;BME280;5097;43.260;27.812;2022-07-15T07:06:55;99950.38;;;27.71;33.72
10115;BME280;5097;43.260;27.812;2022-07-15T07:09:19;99958.63;;;28.13;33.40
10115;BME280;5097;43.260;27.812;2022-07-15T07:11:46;99962.56;;;28.11;33.79
10115;BME280;5097;43.260;27.812;2022-07-15T07:14:12;99961.53;;;28.60;32.55
10115;BME280;5097;43.260;27.812;2022-07-15T07:16:36;99984.19;;;28.81;32.64
10115;BME280;5097;43.260;27.812;2022-07-15T07:19:01;99959.94;;;28.86;31.71
10115;BME280;5097;43.260;27.812;2022-07-15T07:21:25;99937.53;;;28.70;31.58
10115;BME280;5097;43.260;27.812;2022-07-15T07:23:53;99990.44;;;28.33;33.32
10115;BME280;5097;43.260;27.812;2022-07-15T07:26:17;99958.31;;;28.43;32.54
10115;BME280;5097;43.260;27.812;2022-07-15T07:28:42;99956.78;;;28.75;31.32
10115;BME280;5097;43.260;27.812;2022-07-15T07:31:08;99986.56;;;29.17;31.95
10115;BME280;5097;43.260;27.812;2022-07-15T07:33:33;99956.19;;;28.87;31.01
10115;BME280;5097;43.260;27.812;2022-07-15T07:35:57;99956.25;;;29.14;30.51
10115;BME280;5097;43.260;27.812;2022-07-15T07:38:23;99957.84;;;28.88;32.08
10115;BME280;5097;43.260;27.812;2022-07-15T07:40:47;99979.69;;;29.41;31.11
10115;BME280;5097;43.260;27.812;2022-07-15T07:43:11;99952.09;;;29.45;30.64
10115;BME280;5097;43.260;27.812;2022-07-15T07:45:36;99974.88;;;29.90;31.04
10115;BME280;5097;43.260;27.812;2022-07-15T07:48:04;99940.75;;;29.21;31.10
10115;BME280;5097;43.260;27.812;2022-07-15T07:50:29;99960.84;;;29.53;30.90
10115;BME280;5097;43.260;27.812;2022-07-15T07:52:53;99967.13;;;29.74;31.54
10115;BME280;5097;43.260;27.812;2022-07-15T07:55:18;99962.06;;;29.84;31.12
10115;BME280;5097;43.260;27.812;2022-07-15T07:57:48;99961.47;;;29.82;30.46
10115;BME280;5097;43.260;27.812;2022-07-15T08:00:14;99937.81;;;29.63;31.33
10115;BME280;5097;43.260;27.812;2022-07-15T08:02:38;99967.94;;;29.81;31.59
10115;BME280;5097;43.260;27.812;2022-07-15T08:05:06;99941.41;;;29.56;31.78
10115;BME280;5097;43.260;27.812;2022-07-15T08:07:31;99946.19;;;29.74;31.54
10115;BME280;5097;43.260;27.812;2022-07-15T08:09:55;99962.94;;;29.85;31.90
10115;BME280;5097;43.260;27.812;2022-07-15T08:12:30;99964.41;;;29.81;31.41
10115;BME280;5097;43.260;27.812;2022-07-15T08:14:58;99936.59;;;29.52;30.77
10115;BME280;5097;43.260;27.812;2022-07-15T08:17:23;99962.97;;;29.58;31.80
10115;BME280;5097;43.260;27.812;2022-07-15T08:19:48;99938.06;;;29.48;32.47
10115;BME280;5097;43.260;27.812;2022-07-15T08:22:14;99907.91;;;29.56;31.98
10115;BME280;5097;43.260;27.812;2022-07-15T08:24:38;99923.94;;;29.98;30.45
10115;BME280;5097;43.260;27.812;2022-07-15T08:27:03;99952.78;;;30.25;30.89
10115;BME280;5097;43.260;27.812;2022-07-15T08:29:27;99919.13;;;30.06;31.17
10115;BME280;5097;43.260;27.812;2022-07-15T08:31:54;99950.16;;;29.05;33.56
10115;BME280;5097;43.260;27.812;2022-07-15T08:34:18;99938.69;;;29.43;32.29
10115;BME280;5097;43.260;27.812;2022-07-15T08:36:42;99945.28;;;30.14;31.33
10115;BME280;5097;43.260;27.812;2022-07-15T08:39:08;99950.78;;;29.81;32.38
10115;BME280;5097;43.260;27.812;2022-07-15T08:41:36;99933.16;;;30.03;31.44
10115;BME280;5097;43.260;27.812;2022-07-15T08:44:02;99919.66;;;29.50;32.21
10115;BME280;5097;43.260;27.812;2022-07-15T08:46:27;99920.22;;;29.65;30.66
10115;BME280;5097;43.260;27.812;2022-07-15T08:49:01;99943.56;;;30.26;31.53
10115;BME280;5097;43.260;27.812;2022-07-15T08:51:27;99938.53;;;30.30;30.53
10115;BME280;5097;43.260;27.812;2022-07-15T08:53:52;99919.31;;;30.12;29.61
10115;BME280;5097;43.260;27.812;2022-07-15T08:56:19;99942.53;;;30.66;29.16
10115;BME280;5097;43.260;27.812;2022-07-15T08:58:45;99914.13;;;30.49;29.04
10115;BME280;5097;43.260;27.812;2022-07-15T09:01:22;99909.41;;;30.24;29.24
10115;BME280;5097;43.260;27.812;2022-07-15T09:03:46;99874.75;;;30.38;29.22
10115;BME280;5097;43.260;27.812;2022-07-15T09:06:33;99877.19;;;30.53;29.96
10115;BME280;5097;43.260;27.812;2022-07-15T09:09:23;99938.69;;;30.81;28.47
10115;BME280;5097;43.260;27.812;2022-07-15T09:11:55;99929.44;;;30.43;29.56
10115;BME280;5097;43.260;27.812;2022-07-15T09:14:28;99930.41;;;30.62;29.45
10115;BME280;5097;43.260;27.812;2022-07-15T09:17:04;99926.19;;;30.66;29.24
10115;BME280;5097;43.260;27.812;2022-07-15T09:22:49;99924.78;;;30.89;29.22
10115;BME280;5097;43.260;27.812;2022-07-15T09:25:17;99932.97;;;31.21;29.36
10115;BME280;5097;43.260;27.812;2022-07-15T09:27:50;99902.88;;;31.02;29.15
10115;BME280;5097;43.260;27.812;2022-07-15T09:30:18;99909.81;;;31.05;30.06
10115;BME280;5097;43.260;27.812;2022-07-15T09:33:01;99896.44;;;31.22;29.85
10115;BME280;5097;43.260;27.812;2022-07-15T09:35:43;99920.94;;;31.54;29.51
10115;BME280;5097;43.260;27.812;2022-07-15T09:38:26;99894.88;;;31.07;30.97
10115;BME280;5097;43.260;27.812;2022-07-15T09:40:50;99924.56;;;31.22;30.59
10115;BME280;5097;43.260;27.812;2022-07-15T09:43:17;99913.75;;;31.34;29.47
10115;BME280;5097;43.260;27.812;2022-07-15T09:45:44;99904.09;;;31.57;29.48
10115;BME280;5097;43.260;27.812;2022-07-15T09:48:09;99883.06;;;31.64;29.50
10115;BME280;5097;43.260;27.812;2022-07-15T09:50:35;99893.28;;;31.25;29.08
10115;BME280;5097;43.260;27.812;2022-07-15T09:53:02;99887.91;;;31.62;29.12
10115;BME280;5097;43.260;27.812;2022-07-15T09:55:27;99889.69;;;30.99;29.57
10115;BME280;5097;43.260;27.812;2022-07-15T09:57:52;99856.19;;;30.92;29.65
10115;BME280;5097;43.260;27.812;2022-07-15T10:00:18;99870.06;;;31.59;28.75
10115;BME280;5097;43.260;27.812;2022-07-15T10:02:43;99902.41;;;31.81;28.76
10115;BME280;5097;43.260;27.812;2022-07-15T10:05:07;99900.13;;;31.78;29.47
10115;BME280;5097;43.260;27.812;2022-07-15T10:07:32;99901.19;;;31.52;29.80
10115;BME280;5097;43.260;27.812;2022-07-15T10:09:58;99857.53;;;31.52;28.92
10115;BME280;5097;43.260;27.812;2022-07-15T10:12:38;99873.19;;;31.63;29.58
10115;BME280;5097;43.260;27.812;2022-07-15T10:15:12;99848.78;;;31.68;29.40
10115;BME280;5097;43.260;27.812;2022-07-15T10:18:22;99863.63;;;30.78;30.20
10115;BME280;5097;43.260;27.812;2022-07-15T10:21:02;99891.31;;;31.76;29.80
10115;BME280;5097;43.260;27.812;2022-07-15T10:23:54;99879.72;;;31.62;29.55
10115;BME280;5097;43.260;27.812;2022-07-15T10:26:28;99841.50;;;31.81;29.21
10115;BME280;5097;43.260;27.812;2022-07-15T10:28:58;99887.38;;;32.09;29.72
10115;BME280;5097;43.260;27.812;2022-07-15T10:31:27;99865.16;;;31.87;28.83
10115;BME280;5097;43.260;27.812;2022-07-15T10:34:18;99892.09;;;31.39;30.49
10115;BME280;5097;43.260;27.812;2022-07-15T10:36:55;99890.34;;;31.45;30.37
10115;BME280;5097;43.260;27.812;2022-07-15T10:39:22;99885.19;;;31.12;30.50
10115;BME280;5097;43.260;27.812;2022-07-15T10:41:51;99890.72;;;30.98;30.62
10115;BME280;5097;43.260;27.812;2022-07-15T10:44:16;99852.44;;;30.61;31.56
10115;BME280;5097;43.260;27.812;2022-07-15T10:46:41;99883.00;;;30.63;31.20
10115;BME280;5097;43.260;27.812;2022-07-15T10:49:28;99881.22;;;30.43;30.92
10115;BME280;5097;43.260;27.812;2022-07-15T10:52:09;99848.84;;;30.22;30.89
10115;BME280;5097;43.260;27.812;2022-07-15T10:54:40;99882.81;;;30.90;30.41
10115;BME280;5097;43.260;27.812;2022-07-15T10:57:05;99883.84;;;31.21;30.48
10115;BME280;5097;43.260;27.812;2022-07-15T10:59:35;99868.19;;;31.60;30.16
10115;BME280;5097;43.260;27.812;2022-07-15T11:02:14;99840.25;;;31.58;30.18
10115;BME280;5097;43.260;27.812;2022-07-15T11:04:40;99870.25;;;31.39;30.37
10115;BME280;5097;43.260;27.812;2022-07-15T11:07:35;99866.22;;;30.66;31.26
10115;BME280;5097;43.260;27.812;2022-07-15T11:10:18;99847.25;;;30.78;31.33
10115;BME280;5097;43.260;27.812;2022-07-15T11:13:03;99869.91;;;31.11;31.74
10115;BME280;5097;43.260;27.812;2022-07-15T11:15:30;99870.88;;;30.59;32.20
10115;BME280;5097;43.260;27.812;2022-07-15T11:17:55;99850.34;;;31.14;32.03
10115;BME280;5097;43.260;27.812;2022-07-15T11:20:35;99877.94;;;30.99;31.47
10115;BME280;5097;43.260;27.812;2022-07-15T11:23:02;99881.50;;;30.99;31.35
10115;BME280;5097;43.260;27.812;2022-07-15T11:25:29;99876.25;;;31.04;31.05
10115;BME280;5097;43.260;27.812;2022-07-15T11:28:00;99867.38;;;30.52;32.54
10115;BME280;5097;43.260;27.812;2022-07-15T11:30:24;99874.09;;;29.97;33.49
10115;BME280;5097;43.260;27.812;2022-07-15T11:32:55;99866.75;;;30.50;32.23
10115;BME280;5097;43.260;27.812;2022-07-15T11:35:19;99845.88;;;30.30;32.54
10115;BME280;5097;43.260;27.812;2022-07-15T11:37:45;99857.22;;;30.66;32.52
10115;BME280;5097;43.260;27.812;2022-07-15T11:40:11;99826.13;;;29.96;33.28
10115;BME280;5097;43.260;27.812;2022-07-15T11:42:56;99842.78;;;30.20;33.51
10115;BME280;5097;43.260;27.812;2022-07-15T11:45:38;99870.16;;;30.38;33.58
10115;BME280;5097;43.260;27.812;2022-07-15T11:48:04;99874.31;;;30.48;33.87
10115;BME280;5097;43.260;27.812;2022-07-15T11:50:29;99855.25;;;30.41;33.62
10115;BME280;5097;43.260;27.812;2022-07-15T11:52:57;99865.75;;;30.37;32.58
10115;BME280;5097;43.260;27.812;2022-07-15T11:55:22;99828.13;;;29.62;33.11
10115;BME280;5097;43.260;27.812;2022-07-15T11:57:47;99836.25;;;29.75;32.88
10115;BME280;5097;43.260;27.812;2022-07-15T12:00:12;99844.41;;;30.66;32.34
10115;BME280;5097;43.260;27.812;2022-07-15T12:02:37;99868.78;;;31.18;31.18
10115;BME280;5097;43.260;27.812;2022-07-15T12:05:02;99870.50;;;31.13;30.55
10115;BME280;5097;43.260;27.812;2022-07-15T12:07:38;99849.81;;;30.73;29.90
10115;BME280;5097;43.260;27.812;2022-07-15T12:10:06;99837.91;;;30.29;30.32
10115;BME280;5097;43.260;27.812;2022-07-15T12:12:33;99851.44;;;30.49;30.67
10115;BME280;5097;43.260;27.812;2022-07-15T12:14:58;99867.97;;;30.54;31.03
10115;BME280;5097;43.260;27.812;2022-07-15T12:17:24;99874.38;;;30.98;30.93
10115;BME280;5097;43.260;27.812;2022-07-15T12:19:51;99860.56;;;30.93;30.64
10115;BME280;5097;43.260;27.812;2022-07-15T12:22:16;99828.47;;;30.31;30.50
10115;BME280;5097;43.260;27.812;2022-07-15T12:24:42;99847.91;;;31.31;30.54
10115;BME280;5097;43.260;27.812;2022-07-15T12:27:08;99864.28;;;31.05;30.29
10115;BME280;5097;43.260;27.812;2022-07-15T12:29:33;99858.38;;;30.76;30.54
10115;BME280;5097;43.260;27.812;2022-07-15T12:32:18;99858.84;;;30.99;30.49
10115;BME280;5097;43.260;27.812;2022-07-15T12:34:53;99844.56;;;31.03;30.82
10115;BME280;5097;43.260;27.812;2022-07-15T12:37:19;99863.03;;;31.01;31.58
10115;BME280;5097;43.260;27.812;2022-07-15T12:39:54;99852.91;;;31.52;30.75
10115;BME280;5097;43.260;27.812;2022-07-15T12:42:19;99851.69;;;31.73;30.71
10115;BME280;5097;43.260;27.812;2022-07-15T12:44:44;99858.75;;;31.56;31.26
10115;BME280;5097;43.260;27.812;2022-07-15T12:47:18;99833.69;;;30.97;32.37
10115;BME280;5097;43.260;27.812;2022-07-15T12:49:47;99840.78;;;31.04;33.14
10115;BME280;5097;43.260;27.812;2022-07-15T12:52:21;99857.88;;;31.62;32.10
10115;BME280;5097;43.260;27.812;2022-07-15T12:54:48;99862.28;;;31.38;32.48
10115;BME280;5097;43.260;27.812;2022-07-15T12:57:29;99855.56;;;30.90;32.81
10115;BME280;5097;43.260;27.812;2022-07-15T12:59:55;99845.91;;;30.62;33.85
10115;BME280;5097;43.260;27.812;2022-07-15T13:02:19;99841.44;;;30.74;34.25
10115;BME280;5097;43.260;27.812;2022-07-15T13:04:44;99849.06;;;30.59;33.37
10115;BME280;5097;43.260;27.812;2022-07-15T13:07:08;99840.16;;;30.00;33.84
10115;BME280;5097;43.260;27.812;2022-07-15T13:09:32;99850.84;;;30.47;34.03
10115;BME280;5097;43.260;27.812;2022-07-15T13:11:57;99845.09;;;31.37;32.26
10115;BME280;5097;43.260;27.812;2022-07-15T13:14:24;99875.84;;;31.26;32.43
10115;BME280;5097;43.260;27.812;2022-07-15T13:16:48;99845.41;;;31.48;31.65